Time;durP1;ratioP1;P1;durP2;ratioP2;P2;SDS_P1;SDS_P2;PMS_P1;PMS_P2;Temp;Humidity;BMP_temperature;BMP_pressure;BME280_temperature;BME280_humidity;BME280_pressure;Samples;Min_cycle;Max_cycle;Signal;HPM_P1;HPM_P2
2022/03/18 00:01:11;;;;;;;;;36.00;32.25;;;;;10.00;51.50;103166.19;5062162;28;45289;-57
2022/03/18 00:03:36;;;;;;;;;44.00;35.25;;;;;9.99;51.50;103168.78;5063177;28;45252;-57
2022/03/18 00:06:02;;;;;;;;;39.25;34.00;;;;;9.95;51.67;103159.03;5061867;28;45420;-58
2022/03/18 00:08:28;;;;;;;;;40.25;34.50;;;;;9.95;51.74;103159.94;5063068;28;45235;-58
2022/03/18 00:10:53;;;;;;;;;43.50;35.00;;;;;9.95;51.59;103161.66;5062657;28;46017;-59
2022/03/18 00:13:19;;;;;;;;;43.50;35.75;;;;;9.90;51.80;103151.91;5062970;28;45365;-58
2022/03/18 00:15:44;;;;;;;;;35.00;30.50;;;;;9.92;51.63;103152.84;5061903;28;45306;-59
2022/03/18 00:18:09;;;;;;;;;42.00;36.25;;;;;9.89;51.60;103149.25;5061810;28;45340;-59
2022/03/18 00:20:35;;;;;;;;;43.25;37.25;;;;;9.90;51.83;103166.78;5062115;28;45355;-59
2022/03/18 00:23:00;;;;;;;;;40.75;34.75;;;;;9.88;51.80;103161.47;5061591;28;45471;-59
2022/03/18 00:25:26;;;;;;;;;42.75;35.50;;;;;9.86;51.64;103157.03;5062961;28;45650;-59
2022/03/18 00:27:51;;;;;;;;;43.75;34.75;;;;;9.83;51.89;103163.09;5062940;28;45310;-59
2022/03/18 00:30:18;;;;;;;;;43.25;35.75;;;;;9.84;51.65;103169.25;5062857;28;46069;-59
2022/03/18 00:32:45;;;;;;;;;48.25;39.00;;;;;9.82;51.72;103173.56;5062749;28;45371;-59
2022/03/18 00:35:11;;;;;;;;;47.00;36.00;;;;;9.81;51.83;103166.53;5062701;28;45193;-58
2022/03/18 00:37:38;;;;;;;;;42.25;33.75;;;;;9.76;51.82;103164.66;5062637;28;45482;-59
2022/03/18 00:40:05;;;;;;;;;42.50;36.00;;;;;9.78;51.86;103163.81;5071463;28;45161;-59
2022/03/18 00:42:33;;;;;;;;;43.50;35.75;;;;;9.77;51.78;103168.16;5062500;28;45387;-59
2022/03/18 00:45:00;;;;;;;;;43.00;35.75;;;;;9.74;51.86;103168.09;5062844;28;45339;-59
2022/03/18 00:52:53;;;;;;;;;43.75;37.75;;;;;9.68;51.90;103160.91;5062401;28;45261;-59
2022/03/18 00:55:19;;;;;;;;;37.75;33.25;;;;;9.68;51.93;103158.31;5062456;28;45336;-59
2022/03/18 00:57:44;;;;;;;;;43.75;33.00;;;;;9.68;51.74;103165.31;5062458;28;45544;-59
2022/03/18 01:00:11;;;;;;;;;37.25;34.75;;;;;9.66;51.95;103170.50;5062206;28;46102;-59
2022/03/18 01:02:36;;;;;;;;;45.00;37.25;;;;;9.66;52.06;103173.16;5062336;28;45244;-59
2022/03/18 01:05:02;;;;;;;;;43.00;36.50;;;;;9.65;52.10;103171.34;5062184;28;45444;-58
2022/03/18 01:07:28;;;;;;;;;50.00;36.25;;;;;9.62;51.82;103171.25;5062343;28;45166;-58
2022/03/18 01:09:54;;;;;;;;;48.50;39.25;;;;;9.63;51.90;103170.41;5061724;28;46363;-59
2022/03/18 01:12:19;;;;;;;;;45.00;36.00;;;;;9.62;51.89;103173.88;5060926;28;45272;-59
2022/03/18 01:14:45;;;;;;;;;40.25;35.25;;;;;9.59;51.83;103166.81;5062196;28;45506;-59
2022/03/18 01:17:10;;;;;;;;;46.75;38.00;;;;;9.57;52.21;103162.34;5062286;28;45399;-59
2022/03/18 01:19:35;;;;;;;;;45.25;38.00;;;;;9.54;51.96;103173.66;5061728;28;46192;-59
2022/03/18 01:22:01;;;;;;;;;50.00;38.00;;;;;9.54;52.19;103176.28;5061804;28;45278;-60
2022/03/18 01:24:26;;;;;;;;;41.00;36.75;;;;;9.53;52.12;103173.63;5060665;28;45419;-60
2022/03/18 01:26:51;;;;;;;;;38.00;33.00;;;;;9.49;52.14;103163.88;5061936;28;45449;-59
2022/03/18 01:29:17;;;;;;;;;49.75;38.25;;;;;9.47;51.88;103165.56;5061763;28;45346;-60
2022/03/18 01:31:43;;;;;;;;;48.75;37.75;;;;;9.48;51.98;103170.84;5061881;28;45356;-60
2022/03/18 01:34:08;;;;;;;;;47.00;37.75;;;;;9.47;52.08;103168.19;5061881;28;45391;-60
2022/03/18 01:36:34;;;;;;;;;45.75;35.75;;;;;9.41;52.27;103167.16;5061893;28;45236;-60
2022/03/18 01:38:59;;;;;;;;;55.00;42.75;;;;;9.43;52.35;103176.00;5069673;28;46108;-60
2022/03/18 01:41:25;;;;;;;;;43.00;35.25;;;;;9.40;52.21;103167.13;5061809;28;45747;-60
2022/03/18 01:43:51;;;;;;;;;51.25;39.00;;;;;9.39;52.17;103167.97;5061780;28;45225;-60
2022/03/18 01:46:18;;;;;;;;;46.50;37.25;;;;;9.30;52.10;103158.09;5060504;28;45276;-60
2022/03/18 01:48:44;;;;;;;;;46.00;39.25;;;;;9.37;52.16;103167.94;5060167;28;47197;-59
2022/03/18 01:51:15;;;;;;;;;48.00;37.75;;;;;9.35;52.09;103172.22;5061458;28;45470;-60
2022/03/18 01:53:43;;;;;;;;;44.50;37.25;;;;;9.32;52.38;103172.16;5061634;28;45170;-60
2022/03/18 01:56:09;;;;;;;;;50.50;39.50;;;;;9.32;52.31;103177.41;5060256;28;45344;-60
2022/03/18 01:58:34;;;;;;;;;46.00;38.75;;;;;9.28;52.36;103170.25;5061277;28;46219;-59
2022/03/18 02:01:00;;;;;;;;;39.00;33.75;;;;;9.27;52.18;103176.38;5060163;28;45306;-59
2022/03/18 02:03:26;;;;;;;;;39.25;33.75;;;;;9.26;52.22;103171.97;5061456;28;45267;-59
2022/03/18 02:05:51;;;;;;;;;49.25;39.00;;;;;9.26;52.06;103171.97;5061393;28;45271;-59
2022/03/18 02:08:17;;;;;;;;;45.75;35.25;;;;;9.22;52.42;103167.44;5061077;28;45287;-59
2022/03/18 02:10:44;;;;;;;;;40.75;33.50;;;;;9.22;52.02;103178.84;5042964;28;45415;-59
2022/03/18 02:13:09;;;;;;;;;45.00;36.25;;;;;9.22;52.20;103184.09;5061392;28;45270;-59
2022/03/18 02:15:35;;;;;;;;;46.00;38.75;;;;;9.21;52.31;103184.06;5061343;28;45344;-60
2022/03/18 02:18:00;;;;;;;;;38.75;31.00;;;;;9.21;52.21;103181.44;5060975;28;46158;-59
2022/03/18 02:20:26;;;;;;;;;48.00;38.25;;;;;9.18;52.21;103181.34;5059572;28;45311;-59
2022/03/18 02:22:52;;;;;;;;;51.75;39.75;;;;;9.17;52.13;103177.84;5060568;28;45227;-59
2022/03/18 02:25:17;;;;;;;;;52.25;38.00;;;;;9.17;52.27;103174.31;5060934;28;45412;-59
2022/03/18 02:28:01;;;;;;;;;43.75;37.00;;;;;9.16;52.35;103175.16;5060759;28;45401;-59
2022/03/18 02:30:33;;;;;;;;;50.75;39.75;;;;;9.12;52.29;103166.31;5061117;28;45388;-59
2022/03/18 02:32:59;;;;;;;;;43.50;37.25;;;;;9.11;52.12;103170.66;5060922;28;45437;-59
2022/03/18 02:35:28;;;;;;;;;47.50;35.50;;;;;9.06;52.23;103171.38;5060840;28;45250;-61
2022/03/18 02:37:57;;;;;;;;;43.75;37.75;;;;;9.03;52.44;103169.53;5061209;28;46102;-59
2022/03/18 02:40:24;;;;;;;;;43.75;37.25;;;;;9.07;52.29;103178.41;5068256;28;45260;-59
2022/03/18 02:42:50;;;;;;;;;35.75;32.00;;;;;9.03;52.29;103182.66;5059612;28;45248;-59
2022/03/18 02:45:15;;;;;;;;;51.00;39.50;;;;;9.02;52.17;103177.34;5060725;28;45158;-59
2022/03/18 02:47:42;;;;;;;;;37.25;32.50;;;;;9.01;52.12;103173.84;5060481;28;46422;-59
2022/03/18 02:50:08;;;;;;;;;44.25;37.50;;;;;8.99;52.23;103172.88;5060283;28;45264;-59
2022/03/18 02:52:34;;;;;;;;;41.50;37.00;;;;;8.97;52.49;103163.19;5059188;28;45203;-59
2022/03/18 02:54:59;;;;;;;;;49.75;38.75;;;;;8.94;52.38;103170.16;5060676;28;45612;-59
2022/03/18 02:57:25;;;;;;;;;42.50;36.00;;;;;8.93;52.13;103167.44;5060314;28;45319;-59
2022/03/18 02:59:50;;;;;;;;;43.75;36.75;;;;;8.89;52.23;103163.88;5059301;28;45417;-59
2022/03/18 03:02:15;;;;;;;;;45.25;37.75;;;;;8.89;52.38;103160.34;5060349;28;45620;-59
2022/03/18 03:07:59;;;;;;;;;42.75;37.50;;;;;8.88;52.26;103171.66;5059755;28;45303;-59
2022/03/18 03:10:11;;;;;;;;;48.75;38.75;;;;;8.85;52.40;103171.56;5060007;28;45373;-59
2022/03/18 03:12:39;;;;;;;;;49.50;39.75;;;;;8.82;52.44;103177.63;5060349;28;45289;-59
2022/03/18 03:15:06;;;;;;;;;47.00;39.00;;;;;8.81;52.48;103180.19;5060142;28;45495;-59
2022/03/18 03:17:31;;;;;;;;;47.25;37.50;;;;;8.80;52.36;103175.78;5060397;28;45398;-59
2022/03/18 03:19:56;;;;;;;;;53.50;39.25;;;;;8.77;52.46;103177.47;5058575;28;46059;-58
2022/03/18 03:22:22;;;;;;;;;48.00;40.50;;;;;8.77;52.29;103179.22;5059074;28;45236;-59
2022/03/18 03:24:47;;;;;;;;;53.00;40.25;;;;;8.77;52.18;103185.31;5059908;28;45482;-59
2022/03/18 03:27:13;;;;;;;;;48.50;38.25;;;;;8.75;52.31;103194.88;5060045;28;45571;-59
2022/03/18 03:29:39;;;;;;;;;44.75;36.50;;;;;8.74;52.41;103190.47;5059925;28;45248;-59
2022/03/18 03:32:04;;;;;;;;;47.25;40.00;;;;;8.73;52.41;103199.19;5058754;28;45418;-59
2022/03/18 03:34:30;;;;;;;;;44.50;36.50;;;;;8.74;52.50;103198.34;5059032;28;45467;-59
2022/03/18 03:36:55;;;;;;;;;48.00;37.00;;;;;8.71;52.36;103198.22;5058462;28;48100;-59
2022/03/18 03:39:20;;;;;;;;;51.25;41.00;;;;;8.70;52.17;103195.56;5068383;28;45441;-59
2022/03/18 03:41:46;;;;;;;;;54.75;40.25;;;;;8.67;52.39;103193.72;5060088;28;45390;-59
2022/03/18 03:44:12;;;;;;;;;50.25;38.00;;;;;8.65;52.37;103194.53;5059764;28;45519;-59
2022/03/18 03:46:37;;;;;;;;;44.00;36.25;;;;;8.66;52.61;103206.81;5059715;28;46038;-59
2022/03/18 03:49:02;;;;;;;;;52.75;39.25;;;;;8.66;51.95;103199.81;5059809;28;45427;-59
2022/03/18 03:51:28;;;;;;;;;45.25;37.50;;;;;8.65;52.47;103207.63;5059725;28;45285;-59
2022/03/18 03:53:53;;;;;;;;;50.75;40.75;;;;;8.64;52.28;103192.75;5059654;28;45306;-59
2022/03/18 03:56:18;;;;;;;;;49.50;39.00;;;;;8.60;52.40;103191.75;5059708;28;45324;-59
2022/03/18 03:58:44;;;;;;;;;50.75;39.50;;;;;8.62;52.40;103197.94;5059746;28;45278;-59
2022/03/18 04:01:09;;;;;;;;;48.25;38.50;;;;;8.61;52.54;103198.78;5059775;28;45279;-60
2022/03/18 04:03:34;;;;;;;;;53.00;41.75;;;;;8.57;52.43;103202.13;5059857;28;45258;-59
2022/03/18 04:06:00;;;;;;;;;52.25;42.25;;;;;8.58;52.41;103214.41;5059378;28;45347;-59
2022/03/18 04:08:25;;;;;;;;;51.50;38.00;;;;;8.56;52.49;103214.34;5059473;28;45224;-60
2022/03/18 04:10:52;;;;;;;;;49.25;38.25;;;;;8.53;52.56;103214.25;5058343;28;45351;-59
2022/03/18 04:13:17;;;;;;;;;49.25;40.25;;;;;8.51;52.54;103221.16;5058385;28;45449;-59
2022/03/18 04:15:43;;;;;;;;;50.00;39.50;;;;;8.51;52.43;103217.66;5059508;28;46127;-59
2022/03/18 04:18:08;;;;;;;;;52.50;41.75;;;;;8.50;52.46;103226.34;5059395;28;45220;-59
2022/03/18 04:20:34;;;;;;;;;50.75;40.50;;;;;8.47;52.56;103223.66;5059327;28;45469;-59
2022/03/18 04:22:59;;;;;;;;;51.00;41.25;;;;;8.46;52.45;103227.97;5059462;28;45234;-59
2022/03/18 04:25:24;;;;;;;;;59.25;45.00;;;;;8.42;52.59;103226.94;5059179;28;45463;-59
2022/03/18 04:27:50;;;;;;;;;52.50;43.00;;;;;8.42;52.37;103223.44;5059220;28;45378;-59
2022/03/18 04:30:16;;;;;;;;;55.25;44.75;;;;;8.39;52.31;103219.00;5059523;28;45478;-59
2022/03/18 04:32:42;;;;;;;;;55.75;43.75;;;;;8.40;52.48;103214.63;5059176;28;45287;-59
2022/03/18 04:35:09;;;;;;;;;53.75;44.25;;;;;8.36;52.40;103218.88;5058911;28;45478;-59
2022/03/18 04:37:35;;;;;;;;;53.75;43.00;;;;;8.36;52.36;103229.34;5059159;28;45383;-59
2022/03/18 04:40:00;;;;;;;;;53.75;41.75;;;;;8.35;52.53;103232.84;5067792;28;45220;-59
2022/03/18 04:42:26;;;;;;;;;52.00;42.00;;;;;8.35;52.58;103239.78;5059136;28;45223;-59
2022/03/18 04:44:51;;;;;;;;;55.25;44.50;;;;;8.31;52.60;103233.53;5057945;28;47058;-59
2022/03/18 04:47:16;;;;;;;;;52.00;41.75;;;;;8.32;52.21;103240.56;5061772;28;45319;-59
2022/03/18 04:49:42;;;;;;;;;55.25;46.75;;;;;8.29;52.19;103230.88;5062383;28;45180;-59
2022/03/18 04:52:07;;;;;;;;;55.25;43.25;;;;;8.29;52.93;103243.97;5062404;28;45503;-59
2022/03/18 04:54:33;;;;;;;;;51.00;41.00;;;;;8.28;52.42;103251.78;5062347;28;45246;-59
2022/03/18 04:57:18;;;;;;;;;51.00;43.00;;;;;8.25;52.30;103255.19;5062413;28;45391;-59
2022/03/18 04:59:44;;;;;;;;;51.00;41.25;;;;;8.25;52.33;103254.28;5062469;28;45270;-59
2022/03/18 05:02:13;;;;;;;;;54.75;41.00;;;;;8.25;52.37;103249.94;5062347;28;45358;-59
2022/03/18 05:04:41;;;;;;;;;51.00;43.00;;;;;8.22;52.41;103252.44;5060646;28;48194;-59
2022/03/18 05:07:06;;;;;;;;;53.25;43.00;;;;;8.20;52.81;103237.50;5060910;28;45285;-60
2022/03/18 05:09:32;;;;;;;;;45.50;38.25;;;;;8.21;52.59;103241.91;5060669;28;45190;-60
2022/03/18 05:11:57;;;;;;;;;48.00;40.25;;;;;8.17;52.27;103248.78;5060790;28;45316;-60
2022/03/18 05:14:22;;;;;;;;;48.00;39.00;;;;;8.18;52.46;103250.56;5077701;27;47025;-60
2022/03/18 05:16:49;;;;;;;;;44.00;36.25;;;;;8.17;52.74;103259.25;5062016;28;45186;-60
2022/03/18 05:19:15;;;;;;;;;45.25;40.00;;;;;8.16;52.47;103261.81;5062357;28;45170;-59
2022/03/18 05:21:41;;;;;;;;;47.25;39.75;;;;;8.14;52.62;103269.63;5061657;28;45411;-60
2022/03/18 05:24:06;;;;;;;;;52.25;41.75;;;;;8.06;52.44;103260.59;5060472;28;47261;-60
2022/03/18 05:26:33;;;;;;;;;45.75;37.75;;;;;8.14;52.48;103282.72;5060480;28;45468;-60
2022/03/18 05:28:59;;;;;;;;;44.50;37.50;;;;;8.12;52.47;103285.25;5062138;28;45277;-60
2022/03/18 05:31:26;;;;;;;;;48.50;40.25;;;;;8.11;52.39;103280.88;5061746;28;45250;-60
2022/03/18 05:33:51;;;;;;;;;48.75;37.75;;;;;8.11;52.47;103285.22;5060469;28;48571;-60
2022/03/18 05:36:17;;;;;;;;;44.50;37.75;;;;;8.09;52.04;103279.06;5061512;28;45240;-60
2022/03/18 05:38:42;;;;;;;;;48.00;40.75;;;;;8.09;52.45;103285.16;5069305;28;45465;-60
2022/03/18 05:41:07;;;;;;;;;46.25;39.00;;;;;8.08;52.41;103291.22;5062829;28;45375;-60
2022/03/18 05:43:33;;;;;;;;;48.50;38.50;;;;;8.08;52.63;103298.22;5061633;28;46021;-60
2022/03/18 05:45:59;;;;;;;;;51.00;40.50;;;;;8.08;52.54;103296.47;5060266;28;45465;-60
2022/03/18 05:48:24;;;;;;;;;48.50;37.25;;;;;8.08;52.45;103296.47;5061731;28;45170;-60
2022/03/18 05:50:49;;;;;;;;;48.50;38.00;;;;;8.07;52.30;103296.41;5061245;28;45267;-60
2022/03/18 05:53:15;;;;;;;;;47.50;37.25;;;;;8.05;52.27;103295.47;5061467;28;46098;-60
2022/03/18 05:58:24;;;;;;;;;43.25;37.25;;;;;8.06;52.47;103297.25;5060942;28;45243;-60
2022/03/18 06:00:50;;;;;;;;;49.50;40.00;;;;;8.04;52.30;103298.94;5061454;28;45359;-60
2022/03/18 06:03:15;;;;;;;;;47.00;37.00;;;;;8.02;52.30;103304.09;5060145;28;47337;-60
2022/03/18 06:05:42;;;;;;;;;40.00;36.50;;;;;8.03;52.53;103303.28;5061222;28;45339;-60
2022/03/18 06:13:39;;;;;;;;;36.00;32.50;;;;;8.01;52.40;103304.03;5060879;28;45798;-60
2022/03/18 06:16:05;;;;;;;;;39.00;35.50;;;;;8.01;52.37;103306.66;5061194;28;46438;-60
2022/03/18 06:18:30;;;;;;;;;41.25;36.00;;;;;7.99;52.08;103306.63;5061326;28;45453;-60
2022/03/18 06:20:56;;;;;;;;;39.00;35.75;;;;;8.00;51.95;103315.34;5059596;28;45470;-60
2022/03/18 06:23:21;;;;;;;;;41.25;36.25;;;;;7.96;52.29;103322.19;5060859;28;45379;-60
2022/03/18 06:25:47;;;;;;;;;41.00;33.75;;;;;7.98;52.43;103315.31;5060797;28;45343;-60
2022/03/18 06:28:12;;;;;;;;;35.75;34.00;;;;;7.98;52.13;103325.78;5061032;28;45304;-60
2022/03/18 06:30:38;;;;;;;;;30.50;29.00;;;;;7.98;52.47;103334.50;5061126;28;45409;-60
2022/03/18 06:33:04;;;;;;;;;35.75;33.50;;;;;7.98;52.42;103325.78;5060541;28;45318;-60
2022/03/18 06:35:29;;;;;;;;;36.75;32.75;;;;;7.97;52.29;103327.50;5060787;28;45328;-60
2022/03/18 06:37:55;;;;;;;;;41.75;34.00;;;;;7.95;52.34;103326.56;5061692;28;45436;-60
2022/03/18 06:40:20;;;;;;;;;43.25;34.75;;;;;7.93;52.53;103324.72;5068210;28;45541;-60
2022/03/18 06:42:46;;;;;;;;;41.00;37.00;;;;;7.96;52.09;103335.28;5068671;28;46129;-60
2022/03/18 06:45:11;;;;;;;;;38.25;35.00;;;;;7.94;52.33;103331.75;5074013;27;45359;-60
2022/03/18 06:47:37;;;;;;;;;34.25;33.00;;;;;7.94;52.24;103329.13;5062103;27;45390;-60
2022/03/18 06:50:02;;;;;;;;;40.00;34.00;;;;;7.93;52.11;103327.34;5069210;27;45395;-60
2022/03/18 06:52:28;;;;;;;;;36.25;31.75;;;;;7.92;52.43;103320.31;5060629;28;45397;-60
2022/03/18 06:54:53;;;;;;;;;38.00;34.00;;;;;7.92;52.21;103330.78;5059186;28;45336;-60
2022/03/18 06:57:19;;;;;;;;;37.50;34.25;;;;;7.91;52.20;103334.22;5060572;28;45438;-60
2022/03/18 06:59:45;;;;;;;;;34.50;31.00;;;;;7.90;52.45;103329.81;5068547;28;45426;-59
2022/03/18 07:02:10;;;;;;;;;43.75;34.25;;;;;7.89;52.34;103341.16;5058832;28;45765;-60
2022/03/18 07:04:36;;;;;;;;;38.75;33.75;;;;;7.87;52.32;103325.34;5058788;28;45269;-61
2022/03/18 07:07:02;;;;;;;;;40.75;34.25;;;;;7.90;52.27;103335.06;5060347;28;45344;-60
2022/03/18 07:09:27;;;;;;;;;37.75;33.25;;;;;7.87;52.17;103325.34;5060000;28;45214;-60
2022/03/18 07:11:53;;;;;;;;;39.50;33.75;;;;;7.88;52.34;103323.66;5059863;28;45331;-61
2022/03/18 07:14:18;;;;;;;;;33.50;25.25;;;;;7.85;52.13;103316.56;5060337;28;45236;-60
2022/03/18 07:19:39;;;;;;;;;38.50;33.25;;;;;7.88;52.30;103323.66;5051246;28;45371;-49
2022/03/18 07:22:05;;;;;;;;;29.50;24.25;;;;;7.89;52.24;103328.94;5052309;28;46840;-59
2022/03/18 07:24:31;;;;;;;;;36.50;29.25;;;;;7.86;51.82;103323.59;5046697;28;45303;-58
2022/03/18 07:26:56;;;;;;;;;30.50;26.75;;;;;7.87;52.06;103327.97;5059536;28;45260;-57
2022/03/18 07:29:22;;;;;;;;;34.00;30.75;;;;;7.92;52.33;103326.44;5058491;28;45420;-60
2022/03/18 07:31:47;;;;;;;;;24.50;21.25;;;;;7.97;52.26;103334.47;5054496;28;46259;-60
2022/03/18 07:34:12;;;;;;;;;27.00;21.50;;;;;8.00;52.16;103321.50;5059937;28;45426;-62
2022/03/18 07:36:38;;;;;;;;;31.00;28.50;;;;;8.04;52.06;103327.75;5059545;28;46446;-62
2022/03/18 07:39:04;;;;;;;;;39.50;32.00;;;;;8.08;52.26;103312.19;5057536;28;45462;-60
2022/03/18 07:41:29;;;;;;;;;27.75;24.00;;;;;8.13;52.29;103317.59;5059173;28;46002;-65
2022/03/18 07:43:54;;;;;;;;;30.50;27.00;;;;;8.17;52.30;103322.13;5059582;28;45295;-63
2022/03/18 07:46:20;;;;;;;;;34.75;29.00;;;;;8.24;52.26;103323.25;5058559;28;45345;-64
2022/03/18 07:48:46;;;;;;;;;35.00;28.25;;;;;8.23;52.39;103311.88;5059765;28;45364;-62
2022/03/18 07:51:12;;;;;;;;;28.50;23.75;;;;;8.32;52.46;103329.66;5059137;28;45441;-63
2022/03/18 07:53:38;;;;;;;;;28.75;26.75;;;;;8.36;52.58;103330.66;5059346;28;46379;-63
2022/03/18 07:56:04;;;;;;;;;38.00;32.00;;;;;8.42;52.51;103318.66;5057213;28;45358;-61
2022/03/18 07:58:30;;;;;;;;;26.25;19.75;;;;;8.48;52.33;103323.28;5059537;28;45454;-62
2022/03/18 08:00:55;;;;;;;;;27.50;24.75;;;;;8.53;52.32;103320.78;5058154;28;47200;-61
2022/03/18 08:03:21;;;;;;;;;34.75;29.75;;;;;8.59;52.32;103321.00;5059612;28;45409;-62
2022/03/18 08:05:47;;;;;;;;;29.00;27.25;;;;;8.62;52.28;103326.38;5059200;28;45292;-60
2022/03/18 08:08:13;;;;;;;;;31.50;30.75;;;;;8.70;52.20;103329.28;5059041;28;45455;-60
2022/03/18 08:10:39;;;;;;;;;29.25;25.50;;;;;8.75;52.20;103332.94;5059098;28;46130;-65
2022/03/18 08:13:05;;;;;;;;;35.00;30.25;;;;;8.82;52.36;103334.94;5059391;28;45296;-60
2022/03/18 08:15:30;;;;;;;;;35.00;29.75;;;;;8.88;52.01;103339.50;5059504;28;45220;-63
2022/03/18 08:17:55;;;;;;;;;30.25;30.00;;;;;8.94;52.04;103326.59;5058083;28;45252;-63
2022/03/18 08:20:21;;;;;;;;;26.75;24.50;;;;;8.99;52.21;103330.25;5059017;28;46230;-64
2022/03/18 08:22:48;;;;;;;;;36.25;31.50;;;;;9.06;52.26;103331.38;5061705;28;45433;-64
2022/03/18 08:25:14;;;;;;;;;27.25;25.25;;;;;9.12;52.43;103339.44;5062691;28;45236;-63
2022/03/18 08:27:39;;;;;;;;;32.50;29.25;;;;;9.19;52.32;103345.78;5061402;28;46435;-64
2022/03/18 08:30:07;;;;;;;;;32.50;28.00;;;;;9.26;52.15;103343.41;5061678;28;45351;-65
2022/03/18 08:32:33;;;;;;;;;30.25;27.00;;;;;9.34;51.99;103340.16;5062547;28;45341;-64
2022/03/18 08:34:59;;;;;;;;;31.25;26.00;;;;;9.41;52.00;103337.78;5062324;28;45444;-64
2022/03/18 08:40:10;;;;;;;;;29.50;26.25;;;;;9.59;52.22;103344.44;5060977;28;45675;-63
2022/03/18 08:42:36;;;;;;;;;27.25;26.25;;;;;9.67;52.27;103352.56;5062295;28;45285;-64
2022/03/18 08:45:03;;;;;;;;;37.25;32.75;;;;;9.74;52.15;103355.41;5062463;28;45299;-63
2022/03/18 08:47:29;;;;;;;;;35.75;31.50;;;;;9.81;52.20;103351.28;5062387;28;45615;-63
2022/03/18 08:49:54;;;;;;;;;38.75;30.25;;;;;9.87;51.86;103350.56;5062018;28;45987;-62
2022/03/18 08:52:20;;;;;;;;;42.25;35.75;;;;;9.93;52.01;103348.13;5065728;28;45392;-63
2022/03/18 08:54:45;;;;;;;;;35.25;31.00;;;;;9.98;52.01;103345.63;5072409;28;45405;-60
2022/03/18 08:57:11;;;;;;;;;38.75;31.00;;;;;10.01;52.09;103338.75;5078961;28;45526;-63
2022/03/18 08:59:36;;;;;;;;;30.25;27.00;;;;;10.09;51.98;103333.69;5059939;28;47181;-62
2022/03/18 09:02:02;;;;;;;;;29.75;26.50;;;;;10.11;52.05;103334.63;5061778;28;45350;-62
2022/03/18 09:04:27;;;;;;;;;29.50;29.00;;;;;10.15;51.97;103336.50;5061861;28;45320;-62
2022/03/18 09:06:53;;;;;;;;;27.00;24.50;;;;;10.22;51.99;103334.94;5062060;28;45469;-63
2022/03/18 09:09:18;;;;;;;;;30.00;28.00;;;;;10.27;51.81;103345.59;5060617;28;46517;-63
2022/03/18 09:11:44;;;;;;;;;29.25;25.25;;;;;10.32;51.68;103346.63;5062186;28;45327;-63
2022/03/18 09:14:10;;;;;;;;;26.25;26.00;;;;;10.36;51.62;103332.72;5062215;28;45291;-64
2022/03/18 09:16:38;;;;;;;;;31.75;27.50;;;;;10.43;51.68;103344.28;5062047;28;45221;-64
2022/03/18 09:19:07;;;;;;;;;30.50;27.50;;;;;10.46;51.67;103350.53;5061705;28;47132;-64
2022/03/18 09:21:32;;;;;;;;;26.50;23.25;;;;;10.50;51.60;103346.25;5060221;28;45407;-63
2022/03/18 09:23:58;;;;;;;;;27.25;24.00;;;;;10.57;51.38;103350.84;5061385;28;45458;-63
2022/03/18 09:26:23;;;;;;;;;28.50;25.75;;;;;10.64;51.44;103346.63;5061719;28;45478;-63
2022/03/18 09:28:49;;;;;;;;;29.00;25.00;;;;;10.70;51.27;103349.44;5061811;28;45992;-64
2022/03/18 09:31:15;;;;;;;;;24.00;23.25;;;;;10.77;51.24;103342.59;5061536;28;45330;-63
2022/03/18 09:33:43;;;;;;;;;25.25;22.25;;;;;10.85;51.40;103348.94;5060768;28;45336;-63
2022/03/18 09:36:10;;;;;;;;;25.25;20.75;;;;;10.91;51.30;103349.13;5061147;28;45529;-62
2022/03/18 09:38:36;;;;;;;;;31.50;25.00;;;;;10.97;51.05;103344.00;5061544;28;45614;-62
2022/03/18 09:41:03;;;;;;;;;23.50;23.50;;;;;11.10;51.11;103346.97;5061216;28;45265;-62
2022/03/18 09:43:37;;;;;;;;;23.50;21.00;;;;;11.17;51.08;103359.41;5060484;28;45339;-62
2022/03/18 09:46:08;;;;;;;;;25.25;24.25;;;;;11.27;50.94;103355.25;5061433;28;45516;-62
2022/03/18 09:48:34;;;;;;;;;21.25;19.75;;;;;11.33;51.03;103348.44;5061350;28;46322;-62
2022/03/18 09:50:59;;;;;;;;;23.00;22.00;;;;;11.42;50.89;103352.13;5061120;28;45167;-62
2022/03/18 09:53:25;;;;;;;;;22.25;19.75;;;;;11.50;50.78;103350.56;5061781;28;45764;-62
2022/03/18 09:55:52;;;;;;;;;23.50;21.00;;;;;11.59;50.54;103363.94;5059947;28;45514;-62
2022/03/18 09:58:24;;;;;;;;;23.00;20.50;;;;;11.67;50.63;103362.38;5061497;28;45366;-62
2022/03/18 10:00:57;;;;;;;;;19.00;18.75;;;;;11.78;50.29;103364.38;5061266;28;45429;-62
2022/03/18 10:03:34;;;;;;;;;21.25;21.25;;;;;11.85;50.19;103347.84;5060290;28;45264;-61
2022/03/18 10:06:02;;;;;;;;;22.25;20.75;;;;;11.96;50.20;103356.91;5061091;28;45433;-63
2022/03/18 10:08:52;;;;;;;;;20.50;18.00;;;;;12.06;50.09;103357.09;5061103;28;46369;-63
2022/03/18 10:11:19;;;;;;;;;22.75;18.50;;;;;12.16;50.01;103346.78;5061081;28;45260;-62
2022/03/18 10:13:56;;;;;;;;;25.75;20.25;;;;;12.27;49.78;103340.84;5061310;28;45173;-62
2022/03/18 10:16:36;;;;;;;;;21.25;19.25;;;;;12.41;49.89;103341.13;5061127;28;45417;-62
2022/03/18 10:19:05;;;;;;;;;17.25;14.50;;;;;12.51;49.61;103332.50;5059862;28;47485;-62
2022/03/18 10:21:31;;;;;;;;;20.50;20.50;;;;;12.64;49.44;103329.25;5060585;28;45422;-62
2022/03/18 10:24:07;;;;;;;;;18.50;16.75;;;;;12.77;49.59;103340.03;5066100;28;45526;-62
2022/03/18 10:26:35;;;;;;;;;18.50;16.75;;;;;12.91;49.25;103335.88;5059733;28;45362;-62
2022/03/18 10:29:00;;;;;;;;;15.25;15.00;;;;;13.04;49.28;103331.69;5060889;28;45950;-62
2022/03/18 10:31:26;;;;;;;;;21.25;16.75;;;;;13.19;49.16;103328.41;5060825;28;45323;-62
2022/03/18 10:39:23;;;;;;;;;20.25;15.00;;;;;13.66;48.82;103327.41;5060397;28;45263;-63
2022/03/18 10:41:49;;;;;;;;;13.50;12.75;;;;;13.82;49.00;103328.50;5060614;28;45254;-63
2022/03/18 10:44:16;;;;;;;;;18.75;15.00;;;;;13.98;49.01;103324.28;5059270;28;45222;-63
2022/03/18 10:46:42;;;;;;;;;20.75;17.50;;;;;14.12;48.46;103320.09;5059409;28;45558;-63
2022/03/18 10:49:08;;;;;;;;;14.25;13.50;;;;;14.26;48.28;103320.25;5060490;28;45415;-62
2022/03/18 10:51:34;;;;;;;;;16.50;15.00;;;;;14.43;48.20;103317.75;5060024;28;45275;-62
2022/03/18 10:54:00;;;;;;;;;22.50;18.75;;;;;14.60;48.57;103322.34;5059445;28;45367;-63
2022/03/18 10:56:25;;;;;;;;;17.50;14.75;;;;;14.76;48.13;103316.34;5060350;28;45246;-62
2022/03/18 10:58:51;;;;;;;;;15.25;15.25;;;;;14.95;48.34;103317.44;5059306;28;46411;-63
2022/03/18 11:01:18;;;;;;;;;15.75;14.25;;;;;15.11;47.85;103313.13;5060341;28;45177;-62
2022/03/18 11:03:45;;;;;;;;;16.75;15.00;;;;;15.31;47.61;103324.72;5059477;28;45287;-61
2022/03/18 11:06:11;;;;;;;;;17.00;13.00;;;;;15.52;47.55;103322.25;5060050;28;45426;-61
2022/03/18 11:08:47;;;;;;;;;16.75;14.25;;;;;15.72;47.71;103311.75;5060253;28;45351;-61
2022/03/18 11:11:17;;;;;;;;;17.50;15.50;;;;;15.93;47.60;103307.44;5058657;28;45534;-60
2022/03/18 11:14:02;;;;;;;;;22.50;18.75;;;;;16.18;47.41;103307.53;5060467;28;45260;-61
2022/03/18 11:16:31;;;;;;;;;12.75;12.75;;;;;16.42;47.54;103302.28;5060202;28;45178;-61
2022/03/18 11:18:58;;;;;;;;;13.50;13.25;;;;;16.69;47.21;103308.53;5060214;28;45481;-60
2022/03/18 11:21:35;;;;;;;;;12.50;11.00;;;;;16.98;47.46;103301.47;5058544;28;45364;-60
2022/03/18 11:24:03;;;;;;;;;10.50;8.25;;;;;17.30;47.23;103303.22;5052689;28;45205;-60
2022/03/18 11:26:31;;;;;;;;;12.00;12.00;;;;;17.62;47.52;103296.94;5060117;28;45906;-60
2022/03/18 11:29:13;;;;;;;;;13.25;13.25;;;;;18.06;47.62;103298.53;5059867;28;46238;-60
2022/03/18 11:31:39;;;;;;;;;12.75;11.50;;;;;18.50;47.34;103301.84;5059991;28;45395;-61
2022/03/18 11:34:17;;;;;;;;;12.75;10.50;;;;;18.97;48.04;103292.63;5059919;28;45171;-62
2022/03/18 11:37:04;;;;;;;;;16.50;14.25;;;;;19.49;47.75;103292.97;5058752;28;45421;-62
2022/03/18 11:39:30;;;;;;;;;11.75;11.75;;;;;20.06;47.77;103296.75;5058486;28;46603;-62